Terminal Aerodrome Forecast
Issued by NWS

Home | Current Version | Previous Version | Text Only | Print | Product List | Glossary On
Versions: 1 2 3 4 5 6 7 8 9 10 11 12 13 14 15 16 17 18 19 20 21 22 23 24 25 26
000
FTUS42 KGSP 251734
TAFHKY
TAF
KHKY 251734Z 2518/2618 20008KT P6SM BKN045
     FM260000 16005KT P6SM BKN045
     FM260800 17006KT P6SM BKN020 PROB30 2608/2610 4SM -SHRA OVC007
     FM261000 17006KT 5SM BR BKN008 PROB30 2610/2612 2SM -SHRA BR
      OVC003
     FM261300 16006KT 2SM -SHRA BKN005
     FM261700 17008KT 5SM -SHRA OVC020=

USA.gov is the U.S. government's official web portal to all federal, state and local government web resources and services.